Time;durP1;ratioP1;P1;durP2;ratioP2;P2;SDS_P1;SDS_P2;PMS_P1;PMS_P2;Temp;Humidity;BMP_temperature;BMP_pressure;BME280_temperature;BME280_humidity;BME280_pressure;Samples;Min_cycle;Max_cycle;Signal;HPM_P1;HPM_P2
2020/12/01 00:02:24;;;;;;;80.67;40.50;;;;;;;3.26;65.09;99668.20;249440;1137;114733;-65
2020/12/01 00:07:26;;;;;;;81.00;41.70;;;;;;;3.26;64.79;99656.78;249314;1137;114819;-64
2020/12/01 00:12:34;;;;;;;79.10;42.00;;;;;;;3.25;64.94;99663.81;249566;1137;114261;-66
2020/12/01 00:17:39;;;;;;;72.95;36.25;;;;;;;3.28;65.18;99657.63;249657;1137;114693;-65
2020/12/01 00:22:44;;;;;;;76.70;38.07;;;;;;;3.31;64.85;99655.80;249477;1137;114714;-64
2020/12/01 00:27:47;;;;;;;74.97;39.70;;;;;;;3.31;64.75;99661.05;249583;1137;114730;-65
2020/12/01 00:32:56;;;;;;;63.63;33.50;;;;;;;3.31;64.59;99662.83;249656;1137;114685;-69
2020/12/01 00:38:14;;;;;;;66.83;34.40;;;;;;;3.31;64.71;99663.69;249522;1137;114632;-68
2020/12/01 00:43:27;;;;;;;73.60;36.48;;;;;;;3.31;64.86;99663.69;249450;1137;114731;-66
2020/12/01 00:48:50;;;;;;;68.70;35.60;;;;;;;3.30;64.62;99659.33;249243;1137;115620;-67
2020/12/01 00:53:57;;;;;;;67.90;36.08;;;;;;;3.28;64.79;99655.86;249699;1137;114606;-65
2020/12/01 00:59:02;;;;;;;60.70;31.30;;;;;;;3.33;64.59;99655.78;249429;1138;114964;-66
2020/12/01 01:04:14;;;;;;;68.90;37.17;;;;;;;3.35;64.39;99646.06;249372;1141;115237;-65
2020/12/01 01:09:19;;;;;;;69.07;36.17;;;;;;;3.35;64.65;99646.06;249549;1137;116682;-65
2020/12/01 01:14:27;;;;;;;70.50;36.97;;;;;;;3.32;64.60;99646.12;249183;1137;114520;-68
2020/12/01 01:19:29;;;;;;;68.72;35.50;;;;;;;3.30;64.35;99646.18;249706;1137;114639;-66
2020/12/01 01:24:33;;;;;;;61.13;33.90;;;;;;;3.34;64.74;99632.96;249304;1139;116161;-66
2020/12/01 01:29:46;;;;;;;;;;;;;;;;;;;;;
2020/12/01 01:35:00;;;;;;;60.50;30.95;;;;;;;3.32;64.53;99617.20;249402;1141;114763;-65
2020/12/01 01:40:05;;;;;;;57.43;30.53;;;;;;;3.30;64.21;99619.87;249288;1137;115311;-66
2020/12/01 01:45:11;;;;;;;61.40;32.10;;;;;;;3.28;64.23;99607.66;249531;1138;114686;-66
2020/12/01 01:50:19;;;;;;;53.45;29.85;;;;;;;3.25;63.88;99603.32;249537;1137;114826;-66
2020/12/01 01:55:27;;;;;;;55.97;28.20;;;;;;;3.30;64.51;99614.62;249172;1137;114662;-66
2020/12/01 02:00:56;;;;;;;49.48;26.12;;;;;;;3.34;63.82;99602.26;249425;1138;114723;-66
2020/12/01 02:05:59;;;;;;;52.87;26.60;;;;;;;3.38;63.85;99597.78;249651;1137;114970;-65
2020/12/01 02:11:07;;;;;;;47.00;25.25;;;;;;;3.44;63.75;99592.38;249589;1137;114638;-70
2020/12/01 02:16:24;;;;;;;52.63;25.27;;;;;;;3.41;63.41;99589.83;249379;1135;114512;-68
2020/12/01 02:21:35;;;;;;;51.60;26.47;;;;;;;3.44;63.37;99589.75;249361;1133;114835;-66
2020/12/01 02:26:48;;;;;;;45.45;24.45;;;;;;;3.44;63.00;99590.61;249926;1137;114761;-66
2020/12/01 02:31:56;;;;;;;41.97;22.00;;;;;;;3.36;62.62;99589.05;249692;1137;114588;-66
2020/12/01 02:37:00;;;;;;;40.37;20.57;;;;;;;3.28;62.27;99591.88;249425;1144;114829;-66
2020/12/01 02:42:08;;;;;;;35.90;19.40;;;;;;;3.17;62.37;99586.01;249498;1137;114817;-66
2020/12/01 02:47:10;;;;;;;41.45;20.50;;;;;;;3.12;62.33;99596.61;249803;1138;114728;-69
2020/12/01 02:52:13;;;;;;;41.28;22.75;;;;;;;3.06;62.06;99589.75;249738;1137;115803;-70
2020/12/01 02:57:17;;;;;;;42.70;22.67;;;;;;;3.00;62.47;99600.39;249711;1143;116310;-69
2020/12/01 03:02:19;;;;;;;42.90;22.55;;;;;;;2.91;62.78;99587.45;249660;1137;114632;-66
2020/12/01 03:07:21;;;;;;;48.33;24.50;;;;;;;2.80;62.40;99586.83;249729;1137;114702;-66
2020/12/01 03:12:23;;;;;;;45.20;24.40;;;;;;;2.68;62.45;99587.94;249842;1144;114800;-65
2020/12/01 03:17:26;;;;;;;46.90;24.20;;;;;;;2.62;62.75;99595.11;250073;1137;114693;-67
2020/12/01 03:22:29;;;;;;;47.53;23.70;;;;;;;2.53;62.93;99585.65;249573;1138;115553;-67
2020/12/01 03:27:31;;;;;;;41.87;21.27;;;;;;;2.45;62.59;99583.19;249468;1140;114320;-67
2020/12/01 03:32:34;;;;;;;40.53;21.87;;;;;;;2.40;62.61;99578.91;249482;1137;115119;-67
2020/12/01 03:37:36;;;;;;;38.00;19.77;;;;;;;2.33;62.78;99578.16;249318;1130;114411;-66
2020/12/01 03:42:39;;;;;;;41.83;20.83;;;;;;;2.37;63.31;99566.70;249900;1137;115505;-66
2020/12/01 03:47:42;;;;;;;34.83;19.73;;;;;;;2.36;62.76;99567.60;249495;1144;114846;-66
2020/12/01 03:52:44;;;;;;;40.20;21.12;;;;;;;2.29;62.82;99572.11;249778;1137;114739;-67
2020/12/01 03:57:47;;;;;;;36.97;19.83;;;;;;;2.22;62.74;99565.25;249396;1130;114537;-65
2020/12/01 04:02:50;;;;;;;36.10;19.37;;;;;;;2.15;62.22;99568.89;249440;1138;114986;-66
2020/12/01 04:07:53;;;;;;;39.30;19.90;;;;;;;2.06;62.58;99577.80;249864;1138;115416;-67
2020/12/01 04:12:56;;;;;;;40.57;21.67;;;;;;;2.02;62.60;99568.26;249354;1138;115427;-63
2020/12/01 04:17:59;;;;;;;35.75;19.62;;;;;;;2.03;63.09;99559.48;249631;1137;114645;-67
2020/12/01 04:23:02;;;;;;;30.57;17.07;;;;;;;2.04;63.14;99561.23;249737;1137;114902;-66
2020/12/01 04:28:05;;;;;;;30.67;16.90;;;;;;;2.08;62.55;99554.16;249483;1137;114838;-66
2020/12/01 04:33:08;;;;;;;30.70;15.95;;;;;;;2.06;62.50;99548.92;249703;1138;114890;-66
2020/12/01 04:38:11;;;;;;;31.50;16.67;;;;;;;2.01;62.19;99550.79;249876;1138;115664;-65
2020/12/01 04:43:34;;;;;;;31.25;17.52;;;;;;;1.93;62.55;99551.81;250122;1130;116125;-68
2020/12/01 04:48:50;;;;;;;29.17;16.93;;;;;;;1.90;62.40;99550.10;249090;1138;115550;-71
2020/12/01 04:54:01;;;;;;;30.47;17.03;;;;;;;1.84;61.99;99558.12;248826;1138;114813;-69
2020/12/01 04:59:28;;;;;;;33.30;16.73;;;;;;;1.80;62.15;99564.28;249691;1137;115959;-67
2020/12/01 05:05:02;;;;;;;33.10;16.35;;;;;;;1.74;62.50;99557.41;249794;1137;115917;-78
2020/12/01 05:10:12;;;;;;;30.37;15.75;;;;;;;1.70;62.12;99549.60;249620;1137;114783;-70
2020/12/01 05:15:18;;;;;;;30.07;16.60;;;;;;;1.65;62.63;99544.45;249706;1137;114800;-71
2020/12/01 05:20:23;;;;;;;33.27;18.13;;;;;;;1.59;62.21;99547.17;249667;1138;114975;-72
2020/12/01 05:25:31;;;;;;;38.33;18.92;;;;;;;1.53;62.58;99540.30;249693;1137;114352;-75
2020/12/01 05:30:33;;;;;;;38.73;21.17;;;;;;;1.45;63.02;99541.31;249379;1132;115099;-74
2020/12/01 05:35:39;;;;;;;40.98;20.17;;;;;;;1.34;62.98;99533.63;249606;1137;114494;-64
2020/12/01 05:40:50;;;;;;;44.13;20.87;;;;;;;1.30;63.10;99535.44;249721;1147;114810;-65
2020/12/01 05:46:05;;;;;;;43.60;23.70;;;;;;;1.29;62.65;99543.31;248831;1137;114444;-71
2020/12/01 05:51:20;;;;;;;51.15;27.17;;;;;;;1.22;63.05;99541.68;246334;1137;114750;-68
2020/12/01 05:56:22;;;;;;;54.55;28.25;;;;;;;1.17;62.80;99534.77;249808;1137;114727;-68
2020/12/01 06:01:26;;;;;;;52.83;27.75;;;;;;;1.13;63.76;99535.70;249675;1138;115303;-67
2020/12/01 06:06:52;;;;;;;56.43;27.73;;;;;;;1.08;63.50;99529.66;249912;1138;114943;-69
2020/12/01 06:12:07;;;;;;;46.68;25.45;;;;;;;1.03;63.63;99535.87;249366;1140;114493;-70
2020/12/01 06:17:18;;;;;;;47.30;25.43;;;;;;;1.00;63.87;99539.41;248149;1137;116096;-71
2020/12/01 06:22:20;;;;;;;49.27;26.60;;;;;;;1.04;63.19;99542.84;249428;1137;114483;-70
2020/12/01 06:28:01;;;;;;;48.75;23.70;;;;;;;1.07;63.16;99545.42;249724;1138;115048;-69
2020/12/01 06:33:03;;;;;;;47.63;24.20;;;;;;;1.06;64.20;99552.42;249670;1139;114398;-69
2020/12/01 06:38:24;;;;;;;48.83;24.15;;;;;;;1.02;63.69;99547.23;249721;1137;114856;-69
2020/12/01 06:43:40;;;;;;;48.63;24.60;;;;;;;1.01;62.83;99542.88;249642;1137;114789;-69
2020/12/01 06:48:47;;;;;;;45.67;22.97;;;;;;;1.05;63.37;99550.66;249826;1135;115044;-72
2020/12/01 06:53:49;;;;;;;44.95;22.70;;;;;;;1.12;64.20;99551.44;249661;1132;114766;-72
2020/12/01 06:58:52;;;;;;;42.83;21.20;;;;;;;1.17;63.30;99545.25;249887;1144;114836;-72
2020/12/01 07:04:12;;;;;;;40.38;21.65;;;;;;;1.19;63.34;99532.13;249482;1145;114746;-70
2020/12/01 07:09:24;;;;;;;44.53;21.20;;;;;;;1.21;63.40;99532.09;249870;1144;117334;-69
2020/12/01 07:14:29;;;;;;;47.00;22.50;;;;;;;1.21;64.04;99532.95;249607;1137;114803;-69
2020/12/01 07:19:32;;;;;;;50.90;24.65;;;;;;;1.18;63.21;99528.62;249484;1141;114656;-69
2020/12/01 07:24:38;;;;;;;41.87;19.83;;;;;;;1.23;63.84;99538.19;249696;1140;114480;-69
2020/12/01 07:30:05;;;;;;;38.80;18.53;;;;;;;1.32;64.10;99527.53;249361;1139;114888;-68
2020/12/01 07:35:31;;;;;;;33.00;17.37;;;;;;;1.45;63.33;99526.44;249377;1139;115358;-68
2020/12/01 07:40:53;;;;;;;35.10;17.10;;;;;;;1.56;63.11;99537.63;249486;1138;114987;-67
2020/12/01 07:46:05;;;;;;;29.25;15.98;;;;;;;1.66;62.79;99533.05;249917;1139;114656;-68
2020/12/01 07:51:11;;;;;;;32.23;16.17;;;;;;;1.77;63.33;99538.13;249993;1144;114650;-68
2020/12/01 07:56:14;;;;;;;33.80;16.25;;;;;;;1.85;62.85;99538.84;249461;1139;114769;-68
2020/12/01 08:01:17;;;;;;;32.17;16.50;;;;;;;1.95;62.81;99539.54;249484;1138;114722;-69
2020/12/01 08:06:19;;;;;;;37.03;16.10;;;;;;;2.06;62.52;99534.94;249664;1138;114653;-67
2020/12/01 08:11:23;;;;;;;26.93;14.73;;;;;;;2.19;62.46;99531.17;249902;1138;115148;-69
2020/12/01 08:16:28;;;;;;;22.03;11.67;;;;;;;2.30;62.64;99539.69;249619;1139;114861;-68
2020/12/01 08:21:36;;;;;;;22.10;11.70;;;;;;;2.41;61.92;99541.23;249735;1137;114702;-68
2020/12/01 08:26:40;;;;;;;24.25;13.30;;;;;;;2.52;61.75;99537.50;250077;1130;115529;-68
2020/12/01 08:31:56;;;;;;;21.25;11.93;;;;;;;2.66;61.29;99545.08;249403;1139;114620;-68
2020/12/01 08:37:17;;;;;;;23.30;12.83;;;;;;;2.78;61.30;99539.53;249204;1137;114790;-69
2020/12/01 08:42:38;;;;;;;19.97;11.47;;;;;;;2.94;61.00;99547.09;249618;1145;114788;-67
2020/12/01 08:47:43;;;;;;;22.20;12.75;;;;;;;3.00;61.02;99539.93;249739;1139;114504;-68
2020/12/01 08:52:46;;;;;;;22.42;12.23;;;;;;;3.06;60.48;99539.80;249597;1138;114862;-68
2020/12/01 08:58:07;;;;;;;21.87;11.30;;;;;;;3.12;60.22;99538.77;249476;1138;114922;-71
2020/12/01 09:03:10;;;;;;;20.05;11.57;;;;;;;3.20;60.31;99541.23;249921;1137;114950;-70
2020/12/01 09:13:37;;;;;;;19.87;11.03;;;;;;;3.34;59.67;99538.27;249393;1138;116160;-69
2020/12/01 09:24:03;;;;;;;19.77;11.33;;;;;;;3.49;59.36;99528.20;250032;1144;115013;-69
2020/12/01 09:29:05;;;;;;;20.55;11.03;;;;;;;3.59;59.21;99525.34;249081;1138;115524;-69
2020/12/01 09:34:08;;;;;;;20.03;11.07;;;;;;;3.67;58.79;99520.73;249652;1138;115409;-71
2020/12/01 09:39:10;;;;;;;18.80;10.60;;;;;;;3.77;59.08;99514.32;249516;1144;114726;-71
2020/12/01 09:44:39;;;;;;;19.73;10.08;;;;;;;3.88;58.49;99509.66;250037;1142;114657;-71
2020/12/01 09:49:36;;;;;;;21.73;9.70;;;;;;;3.99;58.38;99511.98;250044;1136;114662;-67
2020/12/01 09:54:46;;;;;;;19.03;10.50;;;;;;;4.03;57.93;99497.82;249625;1138;114762;-68
2020/12/01 10:36:40;;;;;;;26.02;11.85;;;;;;;4.88;57.15;99477.72;249614;1137;114560;-71
2020/12/01 10:41:42;;;;;;;21.97;12.20;;;;;;;4.80;56.67;99477.97;249643;1138;116342;-71
2020/12/01 10:46:51;;;;;;;20.82;12.18;;;;;;;4.79;56.25;99480.63;249467;1138;114809;-71
2020/12/01 10:51:55;;;;;;;20.70;12.40;;;;;;;4.78;56.34;99479.78;249600;1137;115136;-71
2020/12/01 10:56:57;;;;;;;26.53;13.60;;;;;;;4.76;56.47;99484.25;249301;1139;114725;-71
2020/12/01 11:02:00;;;;;;;23.50;12.25;;;;;;;4.68;55.67;99487.11;249585;1137;114700;-71
2020/12/01 11:07:03;;;;;;;25.20;12.73;;;;;;;4.65;55.95;99486.34;249280;1137;114810;-71
2020/12/01 11:12:06;;;;;;;22.23;12.30;;;;;;;4.64;56.29;99484.63;248550;1138;114860;-70
2020/12/01 11:17:09;;;;;;;17.93;11.40;;;;;;;4.66;56.50;99473.13;249862;1138;114980;-71
2020/12/01 11:22:13;;;;;;;22.00;11.37;;;;;;;4.63;56.16;99475.86;250262;1138;114959;-70
2020/12/01 11:27:15;;;;;;;25.45;12.23;;;;;;;4.69;55.54;99473.03;249980;1137;115730;-70
2020/12/01 11:32:18;;;;;;;20.27;11.47;;;;;;;4.71;55.38;99478.25;249561;1138;114913;-70
2020/12/01 11:37:21;;;;;;;21.17;10.93;;;;;;;4.70;55.88;99471.25;249741;1130;114894;-70
2020/12/01 11:42:23;;;;;;;26.20;12.40;;;;;;;4.71;55.90;99463.28;249376;1137;115284;-71
2020/12/01 11:47:26;;;;;;;19.40;10.87;;;;;;;4.71;54.74;99462.42;249832;1137;114838;-70
2020/12/01 11:52:29;;;;;;;20.05;10.25;;;;;;;4.70;55.25;99448.39;249875;1145;115648;-71
2020/12/01 11:57:31;;;;;;;24.37;10.63;;;;;;;4.69;55.52;99454.58;249647;1133;114947;-69
2020/12/01 12:02:34;;;;;;;20.03;11.27;;;;;;;4.72;54.85;99445.69;249720;1147;115447;-65
2020/12/01 12:07:37;;;;;;;16.97;10.20;;;;;;;4.80;54.89;99441.05;248493;1138;114664;-68
2020/12/01 12:12:40;;;;;;;22.87;10.80;;;;;;;4.84;55.48;99439.18;249109;1137;114846;-65
2020/12/01 12:17:43;;;;;;;18.15;11.22;;;;;;;4.82;55.04;99428.66;249841;1138;114780;-66
2020/12/01 12:22:45;;;;;;;17.90;10.30;;;;;;;4.83;55.39;99440.10;249467;1138;114881;-65
2020/12/01 12:27:47;;;;;;;19.87;11.10;;;;;;;4.96;55.59;99442.29;249680;1144;114906;-65
2020/12/01 12:32:49;;;;;;;23.17;12.27;;;;;;;5.19;55.55;99436.23;248555;1139;114809;-65
2020/12/01 12:37:52;;;;;;;15.08;10.20;;;;;;;5.36;54.55;99440.93;249938;1137;114613;-66
2020/12/01 12:42:54;;;;;;;21.00;10.53;;;;;;;5.49;54.32;99437.87;249815;1140;114433;-66
2020/12/01 12:47:58;;;;;;;23.47;12.00;;;;;;;5.53;54.26;99429.78;249919;1139;117441;-66
2020/12/01 12:53:00;;;;;;;18.35;11.20;;;;;;;5.55;54.12;99432.39;249670;1151;115097;-66
2020/12/01 12:58:03;;;;;;;24.30;10.57;;;;;;;5.54;52.84;99439.45;249623;1140;114700;-66
2020/12/01 13:03:06;;;;;;;21.53;10.80;;;;;;;5.45;53.40;99447.69;249355;1137;114503;-65
2020/12/01 13:08:08;;;;;;;18.15;11.05;;;;;;;5.42;53.24;99443.36;250375;1140;114880;-65
2020/12/01 13:13:10;;;;;;;18.60;10.68;;;;;;;5.41;53.64;99446.07;249516;1137;114756;-65
2020/12/01 13:18:13;;;;;;;22.83;11.00;;;;;;;5.35;53.17;99452.41;249373;1144;115266;-66
2020/12/01 13:23:15;;;;;;;22.40;12.27;;;;;;;5.36;52.98;99453.27;249382;1144;114798;-66
2020/12/01 13:28:18;;;;;;;23.53;12.47;;;;;;;5.32;53.05;99455.15;249555;1137;114470;-65
2020/12/01 13:33:20;;;;;;;24.32;12.43;;;;;;;5.31;53.93;99458.72;249329;1138;114870;-65
2020/12/01 13:38:23;;;;;;;20.83;11.63;;;;;;;5.21;52.83;99457.30;249720;1145;114833;-66
2020/12/01 13:43:25;;;;;;;19.12;10.90;;;;;;;5.09;53.27;99457.70;249397;1140;115810;-65
2020/12/01 13:48:28;;;;;;;20.47;11.50;;;;;;;4.99;53.78;99451.85;249490;1137;114740;-65
2020/12/01 13:53:30;;;;;;;28.20;12.45;;;;;;;4.89;53.96;99453.06;249388;1147;114684;-65
2020/12/01 13:58:33;;;;;;;25.88;12.95;;;;;;;4.82;53.62;99451.54;249485;1138;115558;-65
2020/12/01 14:03:35;;;;;;;28.53;13.20;;;;;;;4.76;53.61;99457.89;249452;1133;115526;-65
2020/12/01 14:08:38;;;;;;;34.57;12.70;;;;;;;4.65;53.82;99462.61;249425;1138;114803;-65
2020/12/01 14:13:41;;;;;;;25.03;12.60;;;;;;;4.55;53.05;99471.72;249464;1139;114335;-64
2020/12/01 14:18:43;;;;;;;29.03;11.87;;;;;;;4.42;53.50;99474.73;249733;1131;114767;-65
2020/12/01 14:23:45;;;;;;;23.42;12.40;;;;;;;4.34;54.31;99475.86;250145;1137;114696;-65
2020/12/01 14:28:47;;;;;;;29.90;13.00;;;;;;;4.20;53.81;99489.44;249424;1138;114572;-64
2020/12/01 14:33:50;;;;;;;24.07;12.28;;;;;;;4.07;53.93;99495.96;249794;1137;115049;-64
2020/12/01 14:38:53;;;;;;;28.25;13.15;;;;;;;3.92;54.36;99487.59;248182;1145;115331;-66
2020/12/01 14:43:56;;;;;;;22.45;12.85;;;;;;;3.82;54.26;99499.28;249823;1140;115168;-65
2020/12/01 14:49:23;;;;;;;28.45;14.38;;;;;;;3.73;55.13;99495.11;249432;1139;116116;-65
2020/12/01 14:54:27;;;;;;;28.47;14.83;;;;;;;3.63;55.07;99505.93;250178;1144;115372;-66
2020/12/01 15:00:06;;;;;;;28.62;16.35;;;;;;;3.55;54.74;99514.03;249950;1144;115673;-68
2020/12/01 15:05:30;;;;;;;35.37;18.70;;;;;;;3.49;55.50;99516.81;249685;1138;114677;-67
2020/12/01 15:10:41;;;;;;;41.27;19.80;;;;;;;3.39;55.65;99518.81;249579;1139;114675;-67
2020/12/01 15:15:44;;;;;;;42.50;22.70;;;;;;;3.31;56.19;99519.02;247303;1137;114560;-70
2020/12/01 15:20:47;;;;;;;49.60;26.43;;;;;;;3.23;56.25;99518.35;249438;1137;114728;-75
2020/12/01 15:25:56;;;;;;;48.00;25.53;;;;;;;3.14;56.54;99521.20;250068;1137;114826;-72
2020/12/01 15:30:59;;;;;;;54.37;28.80;;;;;;;3.05;56.65;99524.89;249740;1137;114726;-70
2020/12/01 15:36:07;;;;;;;55.45;30.05;;;;;;;3.00;56.85;99531.18;249752;1137;114681;-70
2020/12/01 15:41:13;;;;;;;56.03;28.97;;;;;;;2.89;57.24;99536.69;249843;1137;115091;-72
2020/12/01 15:46:36;;;;;;;52.63;29.13;;;;;;;2.86;57.39;99536.77;249567;1144;114816;-72
2020/12/01 15:51:41;;;;;;;59.87;29.30;;;;;;;2.79;57.55;99543.92;249751;1138;115071;-72
2020/12/01 15:56:53;;;;;;;58.57;29.93;;;;;;;2.74;57.39;99543.14;249594;1137;115157;-72
2020/12/01 16:02:14;;;;;;;64.10;32.07;;;;;;;2.69;57.79;99552.91;249560;1145;115249;-71
2020/12/01 16:07:54;;;;;;;61.50;32.13;;;;;;;2.64;58.02;99554.75;249896;1138;117710;-72
2020/12/01 16:13:20;;;;;;;68.67;33.53;;;;;;;2.59;58.19;99551.37;249698;1137;114856;-72
2020/12/01 16:18:33;;;;;;;74.85;35.03;;;;;;;2.53;58.11;99564.63;249261;1137;114793;-71
2020/12/01 16:23:36;;;;;;;73.00;36.23;;;;;;;2.46;58.32;99563.89;249340;1137;114628;-71
2020/12/01 16:28:38;;;;;;;74.67;36.88;;;;;;;2.43;58.89;99563.95;249441;1137;114795;-71
2020/12/01 16:33:42;;;;;;;76.92;36.95;;;;;;;2.40;58.59;99571.03;248792;1137;115666;-72
2020/12/01 16:38:58;;;;;;;84.60;38.27;;;;;;;2.36;58.31;99573.72;248735;1137;114990;-73
2020/12/01 16:44:15;;;;;;;78.97;38.83;;;;;;;2.32;58.73;99571.19;249635;1139;114606;-73
2020/12/01 16:49:31;;;;;;;83.67;39.57;;;;;;;2.28;58.70;99565.14;250181;1144;116991;-73
2020/12/01 16:55:13;;;;;;;81.07;38.57;;;;;;;2.25;58.58;99567.82;249291;1138;115017;-73
2020/12/01 17:00:38;;;;;;;79.53;39.20;;;;;;;2.23;59.02;99573.99;249873;1144;115779;-71
2020/12/01 17:06:06;;;;;;;84.22;39.03;;;;;;;2.20;58.88;99581.92;249505;1137;115806;-74
2020/12/01 17:11:09;;;;;;;82.40;40.17;;;;;;;2.18;59.13;99574.09;249740;1137;115634;-74
2020/12/01 17:16:49;;;;;;;84.47;39.57;;;;;;;2.14;59.19;99577.67;249624;1138;115104;-73
2020/12/01 17:21:58;;;;;;;81.00;39.77;;;;;;;2.10;59.25;99586.48;249515;1139;114995;-73
2020/12/01 17:27:03;;;;;;;79.03;39.15;;;;;;;2.08;59.92;99578.65;249610;1137;114593;-73
2020/12/01 17:32:25;;;;;;;81.33;40.77;;;;;;;2.05;59.63;99580.47;249879;1137;114725;-75
2020/12/01 17:37:30;;;;;;;85.37;41.23;;;;;;;2.00;60.13;99579.67;249519;1128;114948;-73
2020/12/01 17:42:45;;;;;;;85.10;42.87;;;;;;;1.99;59.31;99583.20;249264;1137;115380;-73
2020/12/01 17:48:14;;;;;;;90.70;43.20;;;;;;;1.96;59.07;99578.87;249988;1137;114607;-74
2020/12/01 17:53:25;;;;;;;85.50;42.27;;;;;;;1.94;59.61;99591.17;249501;1137;114696;-73
2020/12/01 17:58:34;;;;;;;88.73;42.93;;;;;;;1.90;59.42;99599.97;249728;1130;114984;-73
2020/12/01 18:03:38;;;;;;;96.00;44.40;;;;;;;1.88;60.18;99602.63;249282;1137;114918;-73
2020/12/01 18:08:41;;;;;;;86.63;43.53;;;;;;;1.87;59.58;99595.66;249049;1137;115461;-72
2020/12/01 18:13:56;;;;;;;91.47;43.43;;;;;;;1.86;60.44;99607.03;249723;1139;116300;-74
2020/12/01 18:19:29;;;;;;;93.13;44.80;;;;;;;1.84;60.12;99610.59;249491;1138;115232;-73
2020/12/01 18:25:06;;;;;;;92.83;44.80;;;;;;;1.81;59.99;99629.88;249743;1137;114827;-73
2020/12/01 18:30:28;;;;;;;102.40;47.50;;;;;;;1.78;60.66;99631.69;249524;1138;115041;-72
2020/12/01 18:35:41;;;;;;;92.67;45.20;;;;;;;1.74;60.33;99635.27;249508;1137;115061;-73
2020/12/01 18:40:45;;;;;;;95.30;45.87;;;;;;;1.72;60.20;99621.29;249986;1140;115642;-72
2020/12/01 18:45:53;;;;;;;97.02;47.27;;;;;;;1.69;60.14;99637.08;250495;1137;114769;-73
2020/12/01 18:50:57;;;;;;;98.60;46.90;;;;;;;1.64;61.10;99635.41;250876;1138;115490;-75
2020/12/01 18:56:01;;;;;;;93.27;45.03;;;;;;;1.61;61.12;99647.70;250144;1137;115126;-73
2020/12/01 19:01:15;;;;;;;96.15;48.55;;;;;;;1.57;60.75;99657.37;250501;1137;114606;-73
2020/12/01 19:06:21;;;;;;;107.60;51.10;;;;;;;1.54;60.75;99646.93;250476;1144;115166;-74
2020/12/01 19:11:25;;;;;;;102.50;48.63;;;;;;;1.51;60.95;99651.36;250209;1137;115722;-73
2020/12/01 19:16:28;;;;;;;97.40;49.23;;;;;;;1.52;60.92;99661.81;249873;1137;115330;-75
2020/12/01 19:21:30;;;;;;;110.97;51.73;;;;;;;1.50;61.37;99660.13;250355;1137;115001;-74
2020/12/01 19:26:33;;;;;;;108.80;50.47;;;;;;;1.46;61.22;99667.18;250314;1137;115047;-73
2020/12/01 19:31:35;;;;;;;105.70;49.37;;;;;;;1.46;61.43;99666.28;250221;1138;116022;-74
2020/12/01 19:36:39;;;;;;;102.38;50.85;;;;;;;1.44;60.65;99676.81;250292;1141;114893;-75
2020/12/01 19:41:41;;;;;;;110.17;51.93;;;;;;;1.39;60.68;99683.86;250332;1137;114847;-75
2020/12/01 19:46:44;;;;;;;118.57;54.63;;;;;;;1.35;60.88;99683.05;250566;1137;115952;-75
2020/12/01 19:51:47;;;;;;;115.60;54.37;;;;;;;1.31;60.97;99678.73;249925;1137;114924;-74
2020/12/01 19:56:49;;;;;;;115.80;54.00;;;;;;;1.26;61.17;99692.78;250468;1138;114905;-74
2020/12/01 20:01:52;;;;;;;117.10;56.88;;;;;;;1.21;61.63;99694.63;250358;1137;116065;-73
2020/12/01 20:06:56;;;;;;;125.37;60.70;;;;;;;1.16;61.07;99698.17;250576;1137;115056;-73
2020/12/01 20:11:58;;;;;;;133.07;63.60;;;;;;;1.16;61.52;99702.56;250529;1137;115044;-73
2020/12/01 20:17:01;;;;;;;137.00;65.12;;;;;;;1.09;61.57;99701.77;250470;1130;115077;-74
2020/12/01 20:22:04;;;;;;;132.67;63.10;;;;;;;1.04;61.55;99695.70;250389;1130;115414;-73
2020/12/01 20:27:06;;;;;;;132.78;65.25;;;;;;;0.99;61.43;99707.16;250527;1137;115307;-73
2020/12/01 20:32:13;;;;;;;146.03;68.83;;;;;;;0.94;61.25;99713.29;250530;1137;114810;-73
2020/12/01 20:37:53;;;;;;;143.87;65.78;;;;;;;0.89;60.69;99716.88;250609;1137;114901;-72
2020/12/01 20:42:57;;;;;;;139.83;65.67;;;;;;;0.76;61.00;99723.14;250514;1130;115431;-73
2020/12/01 20:47:59;;;;;;;149.03;67.97;;;;;;;0.67;60.40;99730.20;250525;1137;115639;-73
2020/12/01 20:53:04;;;;;;;152.25;70.15;;;;;;;0.63;60.88;99735.49;250330;1142;115351;-73
2020/12/01 20:58:09;;;;;;;146.70;68.50;;;;;;;0.60;61.15;99730.28;249581;1138;114728;-75
2020/12/01 21:03:12;;;;;;;143.77;68.97;;;;;;;0.56;60.72;99726.83;249947;1137;115092;-72
2020/12/01 21:08:17;;;;;;;158.63;73.43;;;;;;;0.53;61.73;99731.23;250633;1137;115245;-71
2020/12/01 21:13:33;;;;;;;158.52;70.28;;;;;;;0.49;61.05;99733.02;250216;1137;114969;-72
2020/12/01 21:18:36;;;;;;;154.90;73.42;;;;;;;0.46;61.87;99744.38;250238;1138;114654;-72
2020/12/01 21:23:39;;;;;;;162.00;74.23;;;;;;;0.43;61.76;99735.69;250561;1137;114989;-73
2020/12/01 21:28:49;;;;;;;154.00;69.95;;;;;;;0.34;62.11;99739.28;250589;1138;115567;-72
2020/12/01 21:34:00;;;;;;;163.00;74.03;;;;;;;0.29;60.66;99750.67;249775;1137;115983;-73
2020/12/01 21:39:07;;;;;;;156.82;70.72;;;;;;;0.22;61.31;99745.48;249539;1136;114744;-73
2020/12/01 21:44:35;;;;;;;161.68;76.47;;;;;;;0.17;61.18;99741.16;249345;1138;114638;-73
2020/12/01 21:49:39;;;;;;;159.57;73.17;;;;;;;0.14;61.40;99754.30;249575;1131;115003;-72
2020/12/01 21:54:44;;;;;;;160.15;75.15;;;;;;;0.09;61.41;99743.84;249602;1137;114968;-72
2020/12/01 22:00:03;;;;;;;161.43;71.43;;;;;;;0.07;61.82;99743.02;249537;1140;115029;-73
2020/12/01 22:05:24;;;;;;;167.13;75.27;;;;;;;0.08;61.19;99738.64;249795;1137;115059;-73
2020/12/01 22:10:32;;;;;;;163.65;72.53;;;;;;;0.01;60.97;99743.05;249144;1139;115225;-73
2020/12/01 22:15:50;;;;;;;157.90;73.33;;;;;;;-0.07;61.77;99748.35;249825;1137;114995;-72
2020/12/01 22:21:14;;;;;;;174.82;77.03;;;;;;;-0.13;62.15;99747.53;249305;1133;115736;-73
2020/12/01 22:26:37;;;;;;;174.50;75.33;;;;;;;-0.16;61.93;99751.03;249437;1138;115050;-73
2020/12/01 22:31:51;;;;;;;170.68;75.62;;;;;;;-0.18;62.25;99744.06;249215;1138;115952;-73
2020/12/01 22:36:54;;;;;;;164.47;75.67;;;;;;;-0.19;62.29;99752.80;249516;1137;115143;-73
2020/12/01 22:42:19;;;;;;;164.65;78.02;;;;;;;-0.23;62.48;99757.19;249649;1133;115527;-73
2020/12/01 22:47:34;;;;;;;180.52;77.80;;;;;;;-0.23;61.43;99758.94;249536;1138;116179;-73
2020/12/01 22:52:48;;;;;;;181.12;79.03;;;;;;;-0.25;62.12;99765.02;249391;1137;115180;-72
2020/12/01 22:57:58;;;;;;;173.70;77.15;;;;;;;-0.28;61.45;99751.97;249703;1130;115220;-73
2020/12/01 23:03:14;;;;;;;166.40;75.10;;;;;;;-0.32;62.78;99755.48;247908;1137;115900;-72
2020/12/01 23:08:35;;;;;;;158.67;72.57;;;;;;;-0.33;61.37;99758.13;249193;1138;115943;-73
2020/12/01 23:14:40;;;;;;;163.80;73.33;;;;;;;-0.41;62.08;99752.92;249714;1138;115396;-73
2020/12/01 23:19:53;;;;;;;163.67;73.40;;;;;;;-0.48;62.73;99751.22;249358;1133;114881;-73
2020/12/01 23:25:13;;;;;;;158.45;69.17;;;;;;;-0.47;61.54;99747.75;249407;1138;115253;-73
2020/12/01 23:30:56;;;;;;;167.65;74.30;;;;;;;-0.49;61.40;99754.72;249477;1137;116755;-73
2020/12/01 23:36:14;;;;;;;160.30;71.57;;;;;;;-0.53;61.41;99751.27;249688;1131;115904;-72
2020/12/01 23:41:54;;;;;;;164.07;75.62;;;;;;;-0.56;62.82;99759.12;249652;1137;116001;-72
2020/12/01 23:47:52;;;;;;;167.97;76.43;;;;;;;-0.55;61.72;99757.36;249306;1137;115192;-72
2020/12/01 23:53:03;;;;;;;153.82;71.17;;;;;;;-0.60;62.44;99760.02;249600;1137;115472;-72
2020/12/01 23:58:28;;;;;;;157.22;69.87;;;;;;;-0.61;61.60;99767.84;249052;1138;115475;-71
